KVJI/VJI METAR and TAF weather

Enter ICAO airport designator
Station Type Date Time Source
KVJI METAR 2020/01/17 14:15 UTC NOAA

KVJI 171415Z AUTO 06005KT 10SM CLR M02/M10 A3062 RMK AO2 T10201105


Station Type Date Time Source
KVJI Decoded METAR 2020/01/17 14:15 UTC NOAA

Abingdon, VA, United States (KVJI) 36-41N 082-02W
Jan 17, 2020 - 09:15 AM EST / 2020.01.17 1415 UTC
Wind: from the ENE (060 degrees) at 6 MPH (5 KT):0
Visibility: 10 mile(s):0
Sky conditions: clear
Temperature: 28.4 F (-2.0 C)
Windchill: 21 F (-6 C):1
Dew Point: 13.1 F (-10.5 C)
Relative Humidity: 52%
Pressure (altimeter): 30.62 in. Hg (1036 hPa)
ob: KVJI 171415Z AUTO 06005KT 10SM CLR M02/M10 A3062 RMK AO2 T10201105
cycle: 14

Station Type Date Time Source
KVJI TAF UTC NOAA

Error!

Example: see airport list